Time;durP1;ratioP1;P1;durP2;ratioP2;P2;SDS_P1;SDS_P2;PMS_P1;PMS_P2;Temp;Humidity;BMP_temperature;BMP_pressure;BME280_temperature;BME280_humidity;BME280_pressure;Samples;Min_cycle;Max_cycle;Signal;HPM_P1;HPM_P2
2021/12/17 00:04:50;;;;;;;49.00;22.35;;;8.40;99.90;;;;;;4933123;29;20122;-58
2021/12/17 00:07:17;;;;;;;60.42;21.95;;;8.40;99.90;;;;;;4946233;29;20568;-59
2021/12/17 00:09:45;;;;;;;60.42;23.05;;;8.40;99.90;;;;;;4949044;29;20051;-59
2021/12/17 00:12:16;;;;;;;61.40;22.80;;;8.40;99.90;;;;;;4949494;29;20141;-58
2021/12/17 00:14:46;;;;;;;55.55;20.90;;;8.40;99.90;;;;;;4948807;29;20082;-60
2021/12/17 00:17:17;;;;;;;48.58;20.05;;;8.30;99.90;;;;;;4916878;29;20127;-59
2021/12/17 00:50:54;;;;;;;47.78;19.42;;;8.30;99.90;;;;;;4939192;29;20040;-58
2021/12/17 00:52:42;;;;;;;51.70;20.33;;;8.20;99.90;;;;;;4942717;29;20054;-58
2021/12/17 00:55:11;;;;;;;49.38;20.02;;;8.20;99.90;;;;;;4923641;29;20554;-59
2021/12/17 00:57:42;;;;;;;52.47;19.77;;;8.20;99.90;;;;;;4920852;28;20097;-58
2021/12/17 01:00:14;;;;;;;54.17;22.00;;;8.20;99.90;;;;;;4947774;28;20443;-58
2021/12/17 01:02:41;;;;;;;57.42;20.45;;;8.30;99.90;;;;;;4948115;28;20043;-58
2021/12/17 01:05:12;;;;;;;55.70;19.63;;;8.30;99.90;;;;;;4944401;28;20367;-59
2021/12/17 01:07:44;;;;;;;52.28;19.50;;;8.30;99.90;;;;;;4939044;28;20059;-59
2021/12/17 01:10:17;;;;;;;57.45;20.80;;;8.30;99.90;;;;;;4943016;28;20051;-59
2021/12/17 01:13:07;;;;;;;56.38;20.48;;;8.30;99.90;;;;;;4929496;28;20241;-48
2021/12/17 01:15:46;;;;;;;55.95;21.63;;;8.30;99.90;;;;;;4947217;28;20517;-53
2021/12/17 01:18:36;;;;;;;54.60;21.02;;;8.30;99.90;;;;;;4935870;28;20532;-50
2021/12/17 01:21:24;;;;;;;60.92;22.85;;;8.30;99.90;;;;;;4924026;29;20055;-52
2021/12/17 01:36:19;;;;;;;61.88;22.02;;;8.30;99.90;;;;;;4950403;28;20054;-57
2021/12/17 01:44:04;;;;;;;77.80;24.10;;;8.30;99.90;;;;;;4912794;28;20054;-51
2021/12/17 01:46:34;;;;;;;80.30;26.55;;;8.30;99.90;;;;;;4961326;28;20047;-50
2021/12/17 02:00:02;;;;;;;66.20;23.45;;;8.30;99.90;;;;;;4965349;28;20062;-57
2021/12/17 02:02:34;;;;;;;66.90;24.00;;;8.30;99.90;;;;;;4942491;28;20058;-58
2021/12/17 02:05:00;;;;;;;62.17;22.48;;;8.30;99.90;;;;;;4939754;28;20047;-58
2021/12/17 02:07:27;;;;;;;73.00;24.52;;;8.30;99.90;;;;;;4947850;28;20501;-58
2021/12/17 02:20:41;;;;;;;71.25;23.40;;;8.30;99.90;;;;;;4951230;28;20053;-52
2021/12/17 02:31:40;;;;;;;75.78;23.45;;;8.30;99.90;;;;;;4950811;28;20047;-58
2021/12/17 02:36:45;;;;;;;73.18;24.30;;;8.30;99.90;;;;;;4945299;28;20080;-50
2021/12/17 02:47:18;;;;;;;55.50;21.27;;;8.30;99.90;;;;;;4948150;28;20051;-59
2021/12/17 02:49:47;;;;;;;70.20;23.35;;;8.30;99.90;;;;;;4949918;28;20051;-50
2021/12/17 02:52:15;;;;;;;64.03;22.15;;;8.30;99.90;;;;;;4950481;28;20047;-52
2021/12/17 02:54:42;;;;;;;74.30;23.70;;;8.30;99.90;;;;;;4966603;28;20047;-59
2021/12/17 02:57:10;;;;;;;67.70;21.80;;;8.30;99.90;;;;;;4951711;28;20050;-53
2021/12/17 02:59:37;;;;;;;67.85;23.25;;;8.30;99.90;;;;;;4948079;28;20052;-52
2021/12/17 03:02:07;;;;;;;59.38;22.30;;;8.30;99.90;;;;;;4918974;29;20047;-58
2021/12/17 03:04:36;;;;;;;60.05;21.65;;;8.30;99.90;;;;;;4933958;29;20359;-52
2021/12/17 03:07:02;;;;;;;59.47;22.33;;;8.30;99.90;;;;;;4949210;28;20066;-49
2021/12/17 03:12:19;;;;;;;54.72;20.63;;;8.30;99.90;;;;;;4950715;28;20803;-59
2021/12/17 03:14:56;;;;;;;62.92;21.75;;;8.30;99.90;;;;;;4950120;28;20394;-59
2021/12/17 03:18:16;;;;;;;73.63;23.50;;;8.20;99.90;;;;;;4952613;28;20051;-52
2021/12/17 03:25:39;;;;;;;61.65;22.08;;;8.30;99.90;;;;;;4949554;29;20122;-51
2021/12/17 03:28:09;;;;;;;49.25;19.08;;;8.30;99.90;;;;;;4932852;29;20055;-59
2021/12/17 03:30:35;;;;;;;55.90;20.02;;;8.30;99.90;;;;;;4951720;28;20410;-59
2021/12/17 03:33:01;;;;;;;53.22;19.77;;;8.30;99.90;;;;;;4918150;29;20062;-58
2021/12/17 03:35:27;;;;;;;50.13;18.73;;;8.30;99.90;;;;;;4946869;29;20142;-59
2021/12/17 03:37:54;;;;;;;55.72;21.17;;;8.30;99.90;;;;;;4932826;29;20051;-59
2021/12/17 03:40:20;;;;;;;54.92;20.30;;;8.30;99.90;;;;;;4932071;28;20055;-59
2021/12/17 03:42:50;;;;;;;53.20;20.10;;;8.30;99.90;;;;;;4950436;29;20544;-59
2021/12/17 03:45:19;;;;;;;55.03;19.05;;;8.30;99.90;;;;;;4950149;28;20058;-59
2021/12/17 03:48:00;;;;;;;48.35;18.42;;;8.30;99.90;;;;;;4948541;28;20066;-59
2021/12/17 03:50:27;;;;;;;52.33;19.52;;;8.30;99.90;;;;;;4952965;28;20042;-59
2021/12/17 03:52:53;;;;;;;48.33;19.02;;;8.30;99.90;;;;;;4935166;29;20051;-59
2021/12/17 03:55:25;;;;;;;45.90;18.42;;;8.30;99.90;;;;;;4938022;29;20387;-59
2021/12/17 03:57:51;;;;;;;53.25;19.13;;;8.30;99.90;;;;;;4950461;29;20070;-58
2021/12/17 04:00:17;;;;;;;53.78;18.75;;;8.30;99.90;;;;;;4953359;28;20129;-58
2021/12/17 04:02:47;;;;;;;51.83;19.50;;;8.30;99.90;;;;;;4946886;28;20058;-58
2021/12/17 04:05:35;;;;;;;;;;;8.30;99.90;;;;;;4930132;28;20709;-58
2021/12/17 04:08:26;;;;;;;49.40;18.25;;;8.30;99.90;;;;;;4944147;28;20320;-60
2021/12/17 04:11:17;;;;;;;48.97;20.10;;;8.30;99.90;;;;;;4947030;28;20047;-53
2021/12/17 04:13:51;;;;;;;52.63;19.23;;;8.30;99.90;;;;;;4930954;29;20052;-47
2021/12/17 04:16:22;;;;;;;50.42;18.63;;;8.30;99.90;;;;;;4932785;29;20051;-51
2021/12/17 04:18:48;;;;;;;51.67;19.43;;;8.30;99.90;;;;;;4947032;28;20051;-58
2021/12/17 04:21:15;;;;;;;54.50;19.35;;;8.30;99.90;;;;;;4932887;29;20426;-49
2021/12/17 04:23:44;;;;;;;54.80;18.77;;;8.30;99.90;;;;;;4965819;28;20110;-59
2021/12/17 04:26:15;;;;;;;56.50;19.92;;;8.20;99.90;;;;;;4931474;28;20062;-52
2021/12/17 04:28:46;;;;;;;41.28;17.83;;;8.30;99.90;;;;;;4949126;28;20042;-54
2021/12/17 04:31:14;;;;;;;50.70;19.00;;;8.30;99.90;;;;;;4964876;28;20043;-53
2021/12/17 04:33:43;;;;;;;52.03;18.63;;;8.20;99.90;;;;;;4917677;29;20316;-48
2021/12/17 04:36:14;;;;;;;57.60;19.90;;;8.30;99.90;;;;;;4949322;28;20430;-55
2021/12/17 04:38:40;;;;;;;42.00;17.40;;;8.30;99.90;;;;;;4949146;28;20055;-51
2021/12/17 04:44:33;;;;;;;56.15;19.38;;;8.30;99.90;;;;;;4948904;28;20047;-49
2021/12/17 04:46:49;;;;;;;51.70;17.92;;;8.30;99.90;;;;;;4927887;29;20127;-52
2021/12/17 04:57:35;;;;;;;45.95;16.92;;;8.30;99.90;;;;;;4948610;28;20039;-53
2021/12/17 05:00:08;;;;;;;53.78;18.73;;;8.20;99.90;;;;;;4948640;28;20063;-53
2021/12/17 05:02:44;;;;;;;46.88;18.15;;;8.30;99.90;;;;;;4933461;28;20044;-54
2021/12/17 05:05:11;;;;;;;53.53;19.33;;;8.30;99.90;;;;;;4946941;28;20089;-53
2021/12/17 05:07:49;;;;;;;47.53;18.85;;;8.20;99.90;;;;;;4942694;28;20074;-49
2021/12/17 05:18:33;;;;;;;44.78;17.40;;;8.10;99.90;;;;;;4930370;29;20406;-47
2021/12/17 05:21:04;;;;;;;45.50;18.83;;;8.10;99.90;;;;;;4947228;28;20105;-48
2021/12/17 05:23:42;;;;;;;56.40;19.65;;;8.10;99.90;;;;;;4949487;29;20513;-48
2021/12/17 05:26:17;;;;;;;52.70;17.60;;;8.10;99.90;;;;;;4930360;28;20486;-51
2021/12/17 05:28:48;;;;;;;46.85;18.48;;;8.10;99.90;;;;;;4948496;28;20052;-51
2021/12/17 05:31:16;;;;;;;47.03;19.35;;;8.10;99.90;;;;;;4932130;29;20090;-49
2021/12/17 05:33:52;;;;;;;50.20;19.02;;;8.10;99.90;;;;;;4918125;28;20047;-52
2021/12/17 05:36:20;;;;;;;44.72;18.40;;;8.10;99.90;;;;;;4950733;28;20114;-52
2021/12/17 05:39:10;;;;;;;41.95;18.52;;;8.10;99.90;;;;;;4946658;28;20051;-49
2021/12/17 05:41:37;;;;;;;65.38;20.98;;;8.10;99.90;;;;;;4905387;29;20122;-52
2021/12/17 05:44:24;;;;;;;53.83;19.48;;;8.10;99.90;;;;;;4922250;28;20051;-51
2021/12/17 05:46:51;;;;;;;54.20;20.35;;;8.10;99.90;;;;;;4935263;29;20059;-50
2021/12/17 05:49:24;;;;;;;70.55;21.27;;;8.10;99.90;;;;;;4952360;28;20402;-53
2021/12/17 05:51:51;;;;;;;39.35;17.98;;;8.10;99.90;;;;;;4952227;28;20047;-53
2021/12/17 05:54:19;;;;;;;55.55;19.70;;;8.10;99.90;;;;;;4951964;29;20552;-47
2021/12/17 05:56:46;;;;;;;69.88;20.67;;;8.10;99.90;;;;;;4951761;28;20055;-47
2021/12/17 05:59:12;;;;;;;56.15;20.27;;;8.10;99.90;;;;;;4952233;28;20062;-50
2021/12/17 06:01:39;;;;;;;71.93;21.95;;;8.10;99.90;;;;;;4935829;29;20047;-51
2021/12/17 06:04:05;;;;;;;60.50;21.45;;;8.20;99.90;;;;;;4919447;28;20550;-48
2021/12/17 06:06:47;;;;;;;53.47;19.88;;;8.20;99.90;;;;;;4935093;29;20035;-59
2021/12/17 06:09:14;;;;;;;66.05;22.52;;;8.10;99.90;;;;;;4966567;28;20130;-51
2021/12/17 06:11:40;;;;;;;64.68;20.98;;;8.20;99.90;;;;;;4936050;29;20053;-59
2021/12/17 06:14:08;;;;;;;55.60;21.13;;;8.10;99.90;;;;;;4950028;29;20047;-58
2021/12/17 06:16:41;;;;;;;59.25;21.50;;;8.10;99.90;;;;;;4941402;28;20409;-48
2021/12/17 06:19:12;;;;;;;53.55;19.67;;;8.10;99.90;;;;;;4925170;28;20055;-50
2021/12/17 06:21:39;;;;;;;72.07;22.23;;;8.10;99.90;;;;;;4951074;28;20055;-58
2021/12/17 06:24:05;;;;;;;69.90;22.10;;;8.10;99.90;;;;;;4949293;28;20497;-53
2021/12/17 06:26:33;;;;;;;47.75;18.88;;;8.00;99.90;;;;;;4947351;28;20122;-54
2021/12/17 06:29:03;;;;;;;65.75;21.48;;;8.00;99.90;;;;;;4949843;28;20094;-59
2021/12/17 06:31:29;;;;;;;65.38;22.55;;;8.00;99.90;;;;;;4949465;28;20078;-47
2021/12/17 06:33:56;;;;;;;70.95;23.77;;;8.00;99.90;;;;;;4951216;28;20549;-51
2021/12/17 06:36:22;;;;;;;71.35;22.08;;;8.00;99.90;;;;;;4919097;29;20102;-48
2021/12/17 06:38:49;;;;;;;63.33;21.85;;;8.00;99.90;;;;;;4935045;28;20046;-48
2021/12/17 06:41:17;;;;;;;92.88;25.02;;;8.00;99.90;;;;;;4933350;29;20110;-50
2021/12/17 06:43:44;;;;;;;81.53;23.35;;;8.00;99.90;;;;;;4951615;28;20153;-51
2021/12/17 06:48:47;;;;;;;89.75;23.15;;;8.00;99.90;;;;;;4951617;28;20051;-50
2021/12/17 07:00:33;;;;;;;75.63;24.33;;;8.00;99.90;;;;;;4949777;29;20054;-58
2021/12/17 07:07:39;;;;;;;92.72;26.20;;;8.00;99.90;;;;;;4951788;28;20050;-58
2021/12/17 07:18:11;;;;;;;107.35;25.73;;;8.00;99.90;;;;;;4947412;28;20057;-60
2021/12/17 07:23:36;;;;;;;91.88;24.45;;;8.00;99.90;;;;;;4953706;28;20061;-59
2021/12/17 07:28:58;;;;;;;85.75;23.75;;;7.90;99.90;;;;;;4950463;29;20043;-60
2021/12/17 07:32:18;;;;;;;95.50;25.77;;;7.90;99.90;;;;;;4916920;29;20557;-59
2021/12/17 07:34:42;;;;;;;92.90;25.42;;;7.90;99.90;;;;;;4948381;29;20055;-58
2021/12/17 07:39:43;;;;;;;85.70;24.55;;;7.90;99.90;;;;;;4916294;29;20050;-59
2021/12/17 07:42:18;;;;;;;76.13;22.88;;;7.90;99.90;;;;;;4932339;29;20090;-58
2021/12/17 07:44:56;;;;;;;91.60;25.08;;;7.90;99.90;;;;;;4947431;29;20047;-59
2021/12/17 07:47:44;;;;;;;76.75;23.73;;;7.90;99.90;;;;;;4949370;29;20047;-59
2021/12/17 07:50:25;;;;;;;71.70;23.80;;;7.90;99.90;;;;;;4949135;28;20151;-59
2021/12/17 07:53:00;;;;;;;79.28;23.38;;;7.90;99.90;;;;;;4951783;28;20078;-58
2021/12/17 07:55:29;;;;;;;75.82;23.58;;;7.90;99.90;;;;;;4933931;29;20062;-59
2021/12/17 07:57:56;;;;;;;79.05;23.17;;;7.90;99.90;;;;;;4931873;29;20130;-58
2021/12/17 08:00:29;;;;;;;71.20;22.75;;;7.90;99.90;;;;;;4948649;28;20494;-52
2021/12/17 08:03:00;;;;;;;71.40;23.60;;;7.90;99.90;;;;;;4950568;29;20047;-58
2021/12/17 08:05:45;;;;;;;63.50;23.63;;;7.90;99.90;;;;;;4937934;29;20079;-59
2021/12/17 08:08:12;;;;;;;77.28;23.35;;;8.00;99.90;;;;;;4949713;29;20061;-59
2021/12/17 08:10:39;;;;;;;62.33;22.00;;;8.00;99.90;;;;;;4918243;29;20154;-59
2021/12/17 08:13:12;;;;;;;59.40;23.42;;;8.00;99.90;;;;;;4917528;29;20089;-57
2021/12/17 08:15:45;;;;;;;;;;;8.00;99.90;;;;;;4950747;29;20075;-57
2021/12/17 08:26:41;;;;;;;63.15;22.42;;;8.00;99.90;;;;;;4950257;29;20040;-58
2021/12/17 08:29:26;;;;;;;56.53;22.63;;;8.10;99.90;;;;;;4962552;28;20056;-59
2021/12/17 08:31:54;;;;;;;57.80;22.95;;;8.10;99.90;;;;;;4932180;29;20051;-59
2021/12/17 08:34:27;;;;;;;57.63;23.17;;;8.10;99.90;;;;;;4932103;29;20044;-59
2021/12/17 08:36:56;;;;;;;56.88;21.70;;;8.10;99.90;;;;;;4948026;29;20051;-59
2021/12/17 08:39:25;;;;;;;49.85;20.65;;;8.10;99.90;;;;;;4933587;29;20043;-59
2021/12/17 08:41:54;;;;;;;50.00;20.80;;;8.20;99.90;;;;;;4948093;29;20051;-58
2021/12/17 08:44:23;;;;;;;44.85;21.15;;;8.20;99.90;;;;;;4932250;29;20134;-59
2021/12/17 08:47:10;;;;;;;51.47;21.30;;;8.20;99.90;;;;;;4950744;28;20450;-56
2021/12/17 08:49:40;;;;;;;51.40;21.17;;;8.30;99.90;;;;;;4916940;29;20039;-59
2021/12/17 08:52:18;;;;;;;42.17;20.05;;;8.30;99.90;;;;;;4935281;29;20387;-59
2021/12/17 08:54:45;;;;;;;41.78;18.23;;;8.30;99.90;;;;;;4917668;29;20047;-59
2021/12/17 08:57:12;;;;;;;34.78;17.67;;;8.30;99.90;;;;;;4949139;29;20054;-59
2021/12/17 08:59:39;;;;;;;40.10;17.98;;;8.30;99.90;;;;;;4950062;28;20058;-59
2021/12/17 09:02:14;;;;;;;33.88;17.98;;;8.40;99.90;;;;;;4950876;28;20048;-50
2021/12/17 09:04:52;;;;;;;35.72;17.85;;;8.40;99.90;;;;;;4948075;29;20047;-59
2021/12/17 09:07:18;;;;;;;43.00;18.48;;;8.40;99.90;;;;;;4930576;28;20513;-59
2021/12/17 09:09:48;;;;;;;36.58;18.02;;;8.40;99.90;;;;;;4952037;29;20697;-59
2021/12/17 09:12:22;;;;;;;33.30;16.17;;;8.40;99.90;;;;;;4952874;29;20095;-59
2021/12/17 09:14:50;;;;;;;34.65;16.88;;;8.50;99.90;;;;;;4952880;29;20106;-59
2021/12/17 09:17:35;;;;;;;36.40;17.00;;;8.50;99.90;;;;;;4953156;29;20055;-59
2021/12/17 09:20:06;;;;;;;35.38;16.25;;;8.50;99.90;;;;;;4933056;29;20054;-59
2021/12/17 09:22:34;;;;;;;29.00;15.18;;;8.50;99.90;;;;;;4951633;28;20047;-59
2021/12/17 09:25:04;;;;;;;28.30;16.02;;;8.60;99.90;;;;;;4949811;29;20047;-59
2021/12/17 09:27:44;;;;;;;34.67;16.63;;;8.60;99.90;;;;;;4965662;28;20113;-59
2021/12/17 09:30:29;;;;;;;29.48;15.70;;;8.60;99.90;;;;;;4953723;28;20502;-62
2021/12/17 09:32:55;;;;;;;26.63;14.30;;;8.60;99.90;;;;;;4951898;29;20522;-59
2021/12/17 09:35:24;;;;;;;26.25;15.52;;;8.60;99.90;;;;;;4944049;28;20121;-59
2021/12/17 09:37:53;;;;;;;28.05;14.88;;;8.70;99.90;;;;;;4946591;29;20146;-58
2021/12/17 09:40:19;;;;;;;28.27;15.30;;;8.70;99.90;;;;;;4949104;29;20058;-59
2021/12/17 09:42:47;;;;;;;28.33;15.65;;;8.70;99.90;;;;;;4950612;29;20031;-59
2021/12/17 09:45:15;;;;;;;26.05;15.10;;;8.70;99.90;;;;;;4952058;29;20039;-59
2021/12/17 09:47:43;;;;;;;29.42;15.60;;;8.70;99.90;;;;;;4950747;29;20047;-59
2021/12/17 09:50:12;;;;;;;27.83;14.75;;;8.80;99.90;;;;;;4951544;29;20126;-59
2021/12/17 09:52:39;;;;;;;25.27;15.23;;;8.80;99.90;;;;;;4951480;29;20051;-60
2021/12/17 09:55:07;;;;;;;23.48;14.60;;;8.80;99.90;;;;;;4968304;28;20058;-59
2021/12/17 09:57:36;;;;;;;23.63;14.52;;;8.80;99.90;;;;;;4950692;28;20047;-59
2021/12/17 10:00:24;;;;;;;21.58;13.90;;;8.80;99.90;;;;;;4934676;29;20410;-59
2021/12/17 10:02:51;;;;;;;26.65;15.98;;;8.90;99.90;;;;;;4966055;28;20047;-60
2021/12/17 10:05:25;;;;;;;22.60;14.15;;;8.90;99.90;;;;;;4950515;29;20050;-46
2021/12/17 10:08:19;;;;;;;24.15;15.18;;;8.90;99.90;;;;;;4949515;29;20051;-48
2021/12/17 10:10:54;;;;;;;21.35;14.27;;;8.90;99.90;;;;;;4944572;29;20055;-52
2021/12/17 10:13:34;;;;;;;23.90;14.88;;;8.90;99.90;;;;;;4965604;28;20406;-51
2021/12/17 10:16:07;;;;;;;25.17;15.35;;;8.90;99.90;;;;;;4947969;28;20050;-51
2021/12/17 10:18:39;;;;;;;23.92;14.40;;;9.00;99.90;;;;;;4946903;29;20047;-48
2021/12/17 10:21:23;;;;;;;24.63;14.88;;;9.00;99.90;;;;;;4948566;28;20058;-51
2021/12/17 10:23:51;;;;;;;28.67;15.90;;;9.00;99.90;;;;;;4963338;28;20047;-58
2021/12/17 10:26:20;;;;;;;22.42;15.50;;;9.10;99.90;;;;;;4949811;29;20161;-59
2021/12/17 10:28:58;;;;;;;26.15;15.82;;;9.10;99.90;;;;;;4950478;29;20078;-59
2021/12/17 10:31:25;;;;;;;20.75;14.07;;;9.10;99.90;;;;;;4933254;29;20114;-59
2021/12/17 10:33:54;;;;;;;23.55;14.80;;;9.10;99.90;;;;;;4936290;29;20446;-59
2021/12/17 10:36:35;;;;;;;22.42;15.52;;;9.10;99.90;;;;;;4937055;29;20509;-59
2021/12/17 10:39:11;;;;;;;19.85;13.95;;;9.10;99.90;;;;;;4951137;29;20580;-59
2021/12/17 10:41:48;;;;;;;25.15;14.57;;;9.10;99.90;;;;;;4951353;29;20047;-59
2021/12/17 10:44:15;;;;;;;23.75;15.23;;;9.10;99.90;;;;;;4952201;29;20046;-60
2021/12/17 10:47:19;;;;;;;25.48;16.60;;;9.10;99.90;;;;;;4937134;29;20130;-59
2021/12/17 10:49:53;;;;;;;27.80;15.43;;;9.10;99.90;;;;;;4950549;29;20048;-58
2021/12/17 10:52:27;;;;;;;23.48;15.27;;;9.20;99.90;;;;;;4938520;29;20135;-59
2021/12/17 10:55:14;;;;;;;25.17;15.05;;;9.20;99.90;;;;;;4954858;29;20086;-59
2021/12/17 10:57:43;;;;;;;21.33;14.18;;;9.20;99.90;;;;;;4938827;29;20395;-60
2021/12/17 11:00:10;;;;;;;22.15;14.60;;;9.20;99.90;;;;;;4937780;29;20059;-58
2021/12/17 11:02:37;;;;;;;20.83;14.07;;;9.20;99.90;;;;;;4938214;29;20085;-59
2021/12/17 11:05:11;;;;;;;25.10;15.57;;;9.30;99.90;;;;;;4938605;29;20513;-59
2021/12/17 11:07:38;;;;;;;20.25;14.02;;;9.30;99.90;;;;;;4955974;28;20060;-59
2021/12/17 11:10:06;;;;;;;22.08;13.75;;;9.30;99.90;;;;;;4938629;29;20122;-59
2021/12/17 11:12:44;;;;;;;22.75;14.48;;;9.30;99.90;;;;;;4954527;29;20131;-59
2021/12/17 11:15:21;;;;;;;24.35;15.43;;;9.30;99.90;;;;;;4954281;29;20105;-60
2021/12/17 11:17:52;;;;;;;23.48;14.65;;;9.40;99.90;;;;;;4970647;28;20098;-60
2021/12/17 11:20:45;;;;;;;20.92;14.68;;;9.40;99.90;;;;;;4938221;29;20454;-60
2021/12/17 11:23:14;;;;;;;23.70;13.68;;;9.40;99.90;;;;;;4949203;29;20047;-60
2021/12/17 11:25:55;;;;;;;20.17;13.15;;;9.50;99.90;;;;;;4955703;28;20047;-60
2021/12/17 11:28:23;;;;;;;22.52;13.80;;;9.50;99.90;;;;;;4937795;29;20102;-61
2021/12/17 11:30:50;;;;;;;26.63;14.68;;;9.50;99.90;;;;;;4953850;28;20051;-60
2021/12/17 11:33:17;;;;;;;20.27;14.10;;;9.50;99.90;;;;;;4955315;28;20047;-61
2021/12/17 11:35:46;;;;;;;22.27;14.57;;;9.60;99.90;;;;;;4925273;29;20094;-59
2021/12/17 11:38:43;;;;;;;32.47;19.63;;;9.60;99.90;;;;;;4935951;29;20269;-57
2021/12/17 11:41:19;;;;;;;20.83;13.77;;;9.60;99.90;;;;;;4950929;29;20415;-58
2021/12/17 11:44:04;;;;;;;20.77;14.00;;;9.60;99.90;;;;;;4935815;29;20043;-59
2021/12/17 11:46:32;;;;;;;19.55;13.45;;;9.70;99.90;;;;;;4935817;29;20043;-59
2021/12/17 11:49:01;;;;;;;22.58;14.15;;;9.70;99.90;;;;;;4919682;29;20403;-58
2021/12/17 11:51:31;;;;;;;21.50;13.98;;;9.70;99.90;;;;;;4954698;28;20043;-58
2021/12/17 11:54:18;;;;;;;20.02;13.02;;;9.80;99.90;;;;;;4937574;29;20047;-61
2021/12/17 11:56:51;;;;;;;19.65;13.00;;;9.80;99.90;;;;;;4953967;29;20062;-58
2021/12/17 11:59:27;;;;;;;21.52;13.40;;;9.80;99.90;;;;;;4954740;28;20494;-58
2021/12/17 12:02:11;;;;;;;17.92;12.98;;;9.80;99.90;;;;;;4954691;28;20050;-58
2021/12/17 12:04:56;;;;;;;18.88;12.02;;;9.80;99.90;;;;;;4954777;28;20047;-59
2021/12/17 12:07:24;;;;;;;20.77;13.15;;;9.80;99.90;;;;;;4935444;29;20052;-58
2021/12/17 12:10:07;;;;;;;19.67;12.40;;;9.70;99.90;;;;;;4935140;29;20128;-59
2021/12/17 12:12:34;;;;;;;19.98;13.10;;;9.70;99.90;;;;;;4930237;29;20392;-58
2021/12/17 12:15:31;;;;;;;22.02;13.55;;;9.70;99.90;;;;;;4952751;29;20047;-58
2021/12/17 12:18:14;;;;;;;20.52;13.55;;;9.70;99.90;;;;;;4952363;29;20126;-58
2021/12/17 12:20:47;;;;;;;20.83;13.85;;;9.70;99.90;;;;;;4918020;29;20070;-58
2021/12/17 12:23:20;;;;;;;20.98;12.40;;;9.70;99.90;;;;;;4934926;29;20382;-58
2021/12/17 12:26:11;;;;;;;21.92;13.40;;;9.80;99.90;;;;;;4918519;29;20083;-58
2021/12/17 12:28:46;;;;;;;19.67;12.93;;;9.70;99.90;;;;;;4934533;29;20054;-52
2021/12/17 12:31:30;;;;;;;20.52;13.25;;;9.80;99.90;;;;;;4947423;29;20039;-53
2021/12/17 12:34:07;;;;;;;18.73;12.95;;;9.80;99.90;;;;;;4946156;29;20149;-49
2021/12/17 12:36:51;;;;;;;20.25;12.68;;;9.80;99.90;;;;;;4943629;29;20059;-48
2021/12/17 12:39:24;;;;;;;23.00;14.93;;;9.80;99.90;;;;;;4950124;29;20059;-52
2021/12/17 12:42:11;;;;;;;21.58;13.45;;;9.80;99.90;;;;;;4932721;29;20407;-53
2021/12/17 12:44:43;;;;;;;19.77;13.90;;;9.80;99.90;;;;;;4945288;29;20051;-51
2021/12/17 12:47:10;;;;;;;;;;;9.80;99.90;;;;;;4950504;28;20054;-51
2021/12/17 12:49:49;;;;;;;19.17;13.43;;;9.80;99.90;;;;;;4947318;29;19949;-55
2021/12/17 12:52:24;;;;;;;20.02;14.93;;;9.80;99.90;;;;;;4927276;29;20207;-56
2021/12/17 12:54:53;;;;;;;25.23;15.05;;;9.80;99.90;;;;;;4943958;29;20063;-48
2021/12/17 12:57:34;;;;;;;21.63;14.48;;;9.80;99.90;;;;;;4956473;28;20073;-48
2021/12/17 13:00:13;;;;;;;22.50;14.65;;;9.80;99.90;;;;;;4950286;29;20054;-48
2021/12/17 13:02:40;;;;;;;17.95;12.93;;;9.80;99.90;;;;;;4942709;29;20073;-50
2021/12/17 13:05:07;;;;;;;16.67;12.57;;;9.80;99.90;;;;;;4931398;29;20040;-49
2021/12/17 13:07:50;;;;;;;17.98;12.52;;;9.80;99.90;;;;;;4938469;29;20486;-50
2021/12/17 13:10:20;;;;;;;20.38;13.40;;;9.80;99.90;;;;;;4932344;29;20113;-52
2021/12/17 13:12:58;;;;;;;20.58;13.80;;;9.80;99.90;;;;;;4933159;29;20055;-57
2021/12/17 13:21:04;;;;;;;16.90;10.55;;;9.80;99.90;;;;;;4930934;29;21288;-50
2021/12/17 13:23:36;;;;;;;12.63;7.93;;;9.80;99.90;;;;;;4935079;29;20043;-51
2021/12/17 13:26:08;;;;;;;11.63;9.00;;;9.80;99.90;;;;;;4949053;28;20051;-51
2021/12/17 13:29:10;;;;;;;13.02;8.52;;;9.80;99.90;;;;;;4937806;28;20455;-49
2021/12/17 13:31:45;;;;;;;13.50;9.85;;;9.90;99.90;;;;;;4928779;29;20043;-55
2021/12/17 13:34:15;;;;;;;8.55;6.20;;;9.90;99.90;;;;;;4929816;29;20525;-52
2021/12/17 13:37:30;;;;;;;8.70;7.05;;;9.90;99.90;;;;;;4913937;29;20058;-52
2021/12/17 13:40:04;;;;;;;7.53;5.03;;;9.90;99.90;;;;;;4938715;29;20059;-54
2021/12/17 13:42:33;;;;;;;4.97;3.38;;;9.90;99.90;;;;;;4948202;28;20499;-53
2021/12/17 13:45:08;;;;;;;6.82;3.40;;;9.80;99.90;;;;;;4915775;29;20577;-54
2021/12/17 13:47:36;;;;;;;4.43;2.90;;;9.80;99.90;;;;;;4947600;29;20118;-53
2021/12/17 13:50:12;;;;;;;4.65;3.15;;;9.70;99.90;;;;;;4946590;28;20542;-50
2021/12/17 13:53:05;;;;;;;4.57;3.03;;;9.70;99.90;;;;;;4948138;29;20065;-49
2021/12/17 13:55:37;;;;;;;6.20;3.50;;;9.70;99.90;;;;;;4943548;29;20151;-49
2021/12/17 13:58:12;;;;;;;5.95;3.50;;;9.70;99.90;;;;;;4966592;28;20055;-51
2021/12/17 14:00:46;;;;;;;7.72;3.97;;;9.70;99.90;;;;;;4953226;28;20076;-53
2021/12/17 14:03:16;;;;;;;7.32;4.13;;;9.70;99.90;;;;;;4944625;28;20055;-55
2021/12/17 14:05:50;;;;;;;5.65;3.85;;;9.70;99.90;;;;;;4946700;29;20062;-54
2021/12/17 14:08:21;;;;;;;6.93;4.00;;;9.70;99.90;;;;;;4934831;29;20429;-52
2021/12/17 14:10:50;;;;;;;7.18;4.18;;;9.70;99.90;;;;;;4951331;28;20090;-53
2021/12/17 14:13:22;;;;;;;15.88;13.23;;;9.60;99.90;;;;;;4953037;28;20508;-54
2021/12/17 14:15:50;;;;;;;4.55;3.20;;;9.60;99.90;;;;;;4966428;28;20039;-54
2021/12/17 14:18:18;;;;;;;4.50;3.10;;;9.60;99.90;;;;;;4966838;28;20743;-51
2021/12/17 14:20:48;;;;;;;6.15;3.17;;;9.60;99.90;;;;;;4967174;28;20144;-52
2021/12/17 14:23:19;;;;;;;4.53;2.60;;;9.60;99.90;;;;;;4953267;28;20107;-58
2021/12/17 14:25:54;;;;;;;13.02;9.85;;;9.60;99.90;;;;;;4951843;29;20123;-54
2021/12/17 14:28:27;;;;;;;16.40;12.40;;;9.60;99.90;;;;;;4952956;29;20318;-58
2021/12/17 14:31:01;;;;;;;5.25;3.65;;;9.50;99.90;;;;;;4953726;28;20047;-58
2021/12/17 14:33:33;;;;;;;6.40;3.55;;;9.50;99.90;;;;;;4950377;29;20051;-58
2021/12/17 14:36:08;;;;;;;13.38;11.65;;;9.50;99.90;;;;;;4951693;29;20086;-57
2021/12/17 14:38:40;;;;;;;24.23;17.85;;;9.40;99.90;;;;;;4936162;29;20051;-52
2021/12/17 14:41:12;;;;;;;6.50;4.90;;;9.40;99.90;;;;;;4943797;28;20367;-59
2021/12/17 14:43:44;;;;;;;7.40;4.20;;;9.40;99.90;;;;;;4945804;28;20039;-59
2021/12/17 14:49:10;;;;;;;5.70;4.28;;;9.40;99.90;;;;;;4938150;29;20043;-59
2021/12/17 15:04:50;;;;;;;8.13;6.50;;;9.30;99.90;;;;;;4933507;29;20055;-58
2021/12/17 15:07:18;;;;;;;9.98;6.05;;;9.40;99.90;;;;;;4947071;29;20138;-58
2021/12/17 15:09:46;;;;;;;8.05;5.95;;;9.30;99.90;;;;;;4952992;28;20051;-59
2021/12/17 15:13:00;;;;;;;8.20;6.28;;;9.30;99.90;;;;;;4967796;28;20043;-58
2021/12/17 15:15:09;;;;;;;7.57;5.95;;;9.30;99.90;;;;;;4959411;28;20051;-59
2021/12/17 15:17:35;;;;;;;7.63;5.70;;;9.30;99.90;;;;;;4967814;28;20062;-59
2021/12/17 15:20:04;;;;;;;9.90;7.05;;;9.30;99.90;;;;;;4952134;29;20050;-58
2021/12/17 15:22:30;;;;;;;13.50;11.25;;;9.30;99.90;;;;;;4952198;29;20418;-59
2021/12/17 15:24:56;;;;;;;10.00;7.07;;;9.30;99.90;;;;;;4952877;28;20394;-59
2021/12/17 15:27:23;;;;;;;14.00;8.75;;;9.20;99.90;;;;;;4943794;29;20560;-59
2021/12/17 15:29:49;;;;;;;20.55;15.63;;;9.30;99.90;;;;;;4952633;29;20047;-59
2021/12/17 15:32:15;;;;;;;10.30;7.60;;;9.20;99.90;;;;;;4950887;29;20051;-59
2021/12/17 15:34:41;;;;;;;37.08;30.38;;;9.20;99.90;;;;;;4953248;28;20051;-59
2021/12/17 15:37:07;;;;;;;19.70;16.35;;;9.20;99.90;;;;;;4953421;28;20054;-59
2021/12/17 15:39:36;;;;;;;39.42;32.30;;;9.20;99.90;;;;;;4952599;29;20560;-59
2021/12/17 15:42:04;;;;;;;13.48;11.73;;;9.20;99.90;;;;;;4935099;28;20058;-59
2021/12/17 15:44:31;;;;;;;11.77;9.73;;;9.20;99.90;;;;;;4950392;28;20043;-59
2021/12/17 15:46:57;;;;;;;15.35;10.98;;;9.20;99.90;;;;;;4953009;28;20046;-58
2021/12/17 15:49:23;;;;;;;11.82;9.75;;;9.20;99.90;;;;;;4951231;29;20035;-59
2021/12/17 15:51:49;;;;;;;10.75;9.30;;;9.20;99.90;;;;;;4947068;28;20466;-59
2021/12/17 15:54:15;;;;;;;11.90;8.90;;;9.20;99.90;;;;;;4967461;28;20138;-58
2021/12/17 15:56:46;;;;;;;12.27;9.57;;;9.20;99.90;;;;;;4948129;28;20086;-58
2021/12/17 15:59:13;;;;;;;11.07;9.65;;;9.20;99.90;;;;;;4950963;29;20086;-59
2021/12/17 16:01:39;;;;;;;12.77;10.18;;;9.20;99.90;;;;;;4952603;28;20490;-58
2021/12/17 16:04:05;;;;;;;13.63;9.60;;;9.20;99.90;;;;;;4951687;29;20491;-58
2021/12/17 16:06:31;;;;;;;13.35;10.18;;;9.20;99.90;;;;;;4952805;28;20054;-58
2021/12/17 16:09:00;;;;;;;10.80;9.07;;;9.20;99.90;;;;;;4951034;29;20113;-56
2021/12/17 16:22:20;;;;;;;12.98;9.88;;;9.20;99.90;;;;;;4952418;29;20570;-57